Time;durP1;ratioP1;P1;durP2;ratioP2;P2;SDS_P1;SDS_P2;PMS_P1;PMS_P2;Temp;Humidity;BMP_temperature;BMP_pressure;BME280_temperature;BME280_humidity;BME280_pressure;Samples;Min_cycle;Max_cycle;Signal;HPM_P1;HPM_P2
2022/12/03 00:01:50;;;;;;;15.85;5.95;;;;;;;;;;7391164;19;20547;-72
2022/12/03 00:04:16;;;;;;;11.68;4.93;;;;;;;;;;7389937;19;19998;-72
2022/12/03 00:06:41;;;;;;;14.52;6.13;;;;;;;;;;7391000;19;19999;-72
2022/12/03 00:09:06;;;;;;;11.77;5.40;;;;;;;;;;7389102;19;20527;-71
2022/12/03 00:11:32;;;;;;;14.40;6.07;;;;;;;;;;7390582;19;19990;-72
2022/12/03 00:13:57;;;;;;;16.80;6.00;;;;;;;;;;7390226;19;20002;-72
2022/12/03 00:16:23;;;;;;;12.20;5.55;;;;;;;;;;7390753;19;19991;-72
2022/12/03 00:18:48;;;;;;;15.77;6.13;;;;;;;;;;7388690;19;20032;-72
2022/12/03 00:21:13;;;;;;;12.73;5.85;;;;;;;;;;7390271;19;19994;-72
2022/12/03 00:23:39;;;;;;;16.90;5.70;;;;;;;;;;7389390;19;19990;-72
2022/12/03 00:26:04;;;;;;;17.35;5.80;;;;;;;;;;7388313;19;20003;-72
2022/12/03 00:28:29;;;;;;;13.45;5.65;;;;;;;;;;7388339;19;20002;-72
2022/12/03 00:30:55;;;;;;;14.50;5.50;;;;;;;;;;7388164;19;20345;-71
2022/12/03 00:33:23;;;;;;;15.23;5.75;;;;;;;;;;7389244;19;20002;-73
2022/12/03 00:35:48;;;;;;;16.33;6.20;;;;;;;;;;7394171;19;20006;-72
2022/12/03 00:38:14;;;;;;;18.60;6.68;;;;;;;;;;7388541;19;19994;-72
2022/12/03 00:40:40;;;;;;;15.38;6.25;;;;;;;;;;7387676;19;20004;-73
2022/12/03 00:43:05;;;;;;;15.88;6.78;;;;;;;;;;7389266;19;19998;-73
2022/12/03 00:45:30;;;;;;;15.20;6.07;;;;;;;;;;7388162;19;19998;-71
2022/12/03 00:47:56;;;;;;;13.32;5.75;;;;;;;;;;7388283;19;20002;-72
2022/12/03 00:50:21;;;;;;;17.33;6.40;;;;;;;;;;7393715;19;20005;-71
2022/12/03 00:52:48;;;;;;;15.65;5.75;;;;;;;;;;7388793;19;20075;-71
2022/12/03 00:55:14;;;;;;;12.50;5.70;;;;;;;;;;7389161;19;20511;-72
2022/12/03 00:57:40;;;;;;;13.50;5.93;;;;;;;;;;7388466;19;20428;-72
2022/12/03 01:00:06;;;;;;;16.50;7.70;;;;;;;;;;7387605;19;20002;-72
2022/12/03 01:02:31;;;;;;;15.77;5.47;;;;;;;;;;7388664;19;19997;-71
2022/12/03 01:04:57;;;;;;;16.20;7.00;;;;;;;;;;7388424;19;19994;-72
2022/12/03 01:07:22;;;;;;;12.85;6.70;;;;;;;;;;7388303;19;20005;-72
2022/12/03 01:09:47;;;;;;;13.77;6.05;;;;;;;;;;7387445;19;20017;-72
2022/12/03 01:12:13;;;;;;;15.10;5.35;;;;;;;;;;7388646;19;20006;-72
2022/12/03 01:14:38;;;;;;;17.05;6.55;;;;;;;;;;7388266;19;20003;-72
2022/12/03 01:17:03;;;;;;;16.45;7.03;;;;;;;;;;7387322;19;19994;-72
2022/12/03 01:19:29;;;;;;;16.58;7.40;;;;;;;;;;7392368;19;20023;-72
2022/12/03 01:21:54;;;;;;;18.67;6.50;;;;;;;;;;7388692;19;20039;-72
2022/12/03 01:24:20;;;;;;;20.55;7.93;;;;;;;;;;7388048;19;20062;-72
2022/12/03 01:26:45;;;;;;;16.65;7.85;;;;;;;;;;7388535;19;20003;-72
2022/12/03 01:29:11;;;;;;;18.77;7.93;;;;;;;;;;7392538;19;20027;-72
2022/12/03 01:34:20;;;;;;;15.60;6.50;;;;;;;;;;7393780;19;20002;-72
2022/12/03 01:36:46;;;;;;;18.85;7.13;;;;;;;;;;7394232;19;20002;-72
2022/12/03 01:39:11;;;;;;;17.65;7.70;;;;;;;;;;7392637;19;20432;-72
2022/12/03 01:41:37;;;;;;;18.70;6.95;;;;;;;;;;7395535;19;19999;-72
2022/12/03 01:44:11;;;;;;;20.90;8.13;;;;;;;;;;7395374;19;19995;-72
2022/12/03 01:46:39;;;;;;;22.95;7.50;;;;;;;;;;7395747;19;20010;-72
2022/12/03 01:49:05;;;;;;;19.40;7.82;;;;;;;;;;7392762;19;20054;-71
2022/12/03 01:51:30;;;;;;;17.20;7.53;;;;;;;;;;7395204;19;20002;-73
2022/12/03 01:53:57;;;;;;;20.00;7.65;;;;;;;;;;7394990;19;20367;-71
2022/12/03 01:56:23;;;;;;;21.70;7.70;;;;;;;;;;7396862;19;20038;-71
2022/12/03 01:58:48;;;;;;;17.63;6.40;;;;;;;;;;7391553;19;20002;-72
2022/12/03 02:01:16;;;;;;;18.85;8.32;;;;;;;;;;7395096;19;20488;-71
2022/12/03 02:03:43;;;;;;;17.88;7.25;;;;;;;;;;7392207;19;19999;-71
2022/12/03 02:06:18;;;;;;;18.38;8.02;;;;;;;;;;7394804;19;20009;-71
2022/12/03 02:08:43;;;;;;;19.85;8.13;;;;;;;;;;7392262;19;20007;-71
2022/12/03 02:11:21;;;;;;;18.27;6.85;;;;;;;;;;7394892;19;19994;-71
2022/12/03 02:13:50;;;;;;;16.10;6.75;;;;;;;;;;7393757;19;19995;-71
2022/12/03 02:16:15;;;;;;;15.05;7.07;;;;;;;;;;7394238;19;20023;-71
2022/12/03 02:18:42;;;;;;;21.38;8.23;;;;;;;;;;7390302;19;20003;-71
2022/12/03 02:21:25;;;;;;;21.17;7.55;;;;;;;;;;7392671;19;20467;-71
2022/12/03 02:24:10;;;;;;;19.42;7.30;;;;;;;;;;7393184;19;20393;-72
2022/12/03 02:26:36;;;;;;;16.23;7.05;;;;;;;;;;7393813;19;20006;-71
2022/12/03 02:29:01;;;;;;;20.25;8.15;;;;;;;;;;7391514;19;19998;-74
2022/12/03 02:31:27;;;;;;;19.10;7.47;;;;;;;;;;7396125;19;19999;-71
2022/12/03 02:33:52;;;;;;;20.75;7.28;;;;;;;;;;7392879;19;19998;-71
2022/12/03 02:36:18;;;;;;;17.73;7.68;;;;;;;;;;7393413;19;19999;-72
2022/12/03 02:38:45;;;;;;;20.45;8.30;;;;;;;;;;7388079;19;20003;-72
2022/12/03 02:42:33;;;;;;;18.10;7.47;;;;;;;;;;7392505;19;20009;-72
2022/12/03 02:43:59;;;;;;;15.35;6.68;;;;;;;;;;7394343;19;20330;-72
2022/12/03 02:46:24;;;;;;;18.35;7.05;;;;;;;;;;7393139;19;20002;-71
2022/12/03 02:48:50;;;;;;;15.05;7.18;;;;;;;;;;7391520;19;20003;-71
2022/12/03 02:51:15;;;;;;;17.83;7.00;;;;;;;;;;7393823;19;19995;-71
2022/12/03 02:53:47;;;;;;;14.05;6.28;;;;;;;;;;7392341;19;20024;-70
2022/12/03 02:56:15;;;;;;;13.05;6.68;;;;;;;;;;7393194;19;19994;-71
2022/12/03 02:58:43;;;;;;;19.45;7.45;;;;;;;;;;7391396;19;20002;-71
2022/12/03 03:01:09;;;;;;;14.95;7.10;;;;;;;;;;7392911;19;19995;-71
2022/12/03 03:03:36;;;;;;;18.85;8.30;;;;;;;;;;7392155;19;20496;-71
2022/12/03 03:06:02;;;;;;;15.32;6.28;;;;;;;;;;7391649;19;20392;-71
2022/12/03 03:08:28;;;;;;;12.98;6.30;;;;;;;;;;7391145;19;20016;-72
2022/12/03 03:10:54;;;;;;;14.15;6.05;;;;;;;;;;7392291;19;20006;-71
2022/12/03 03:13:20;;;;;;;17.90;6.72;;;;;;;;;;7391909;19;20354;-72
2022/12/03 03:15:46;;;;;;;18.92;7.07;;;;;;;;;;7392810;19;20003;-71
2022/12/03 03:18:13;;;;;;;16.15;6.95;;;;;;;;;;7390149;19;20006;-71
2022/12/03 03:20:39;;;;;;;17.92;6.85;;;;;;;;;;7394593;19;20039;-72
2022/12/03 03:23:13;;;;;;;22.95;8.38;;;;;;;;;;7391721;19;20003;-72
2022/12/03 03:25:42;;;;;;;16.65;8.07;;;;;;;;;;7392234;19;20003;-72
2022/12/03 03:28:08;;;;;;;14.98;7.13;;;;;;;;;;7391271;19;20317;-72
2022/12/03 03:30:37;;;;;;;15.57;7.13;;;;;;;;;;7390280;19;20003;-72
2022/12/03 03:33:03;;;;;;;16.67;7.45;;;;;;;;;;7391324;19;20002;-72
2022/12/03 03:35:28;;;;;;;17.63;7.22;;;;;;;;;;7391680;19;20014;-72
2022/12/03 03:37:55;;;;;;;15.35;6.53;;;;;;;;;;7388887;19;20119;-71
2022/12/03 03:40:20;;;;;;;16.30;6.57;;;;;;;;;;7389953;19;19995;-72
2022/12/03 03:42:47;;;;;;;16.00;7.38;;;;;;;;;;7391112;19;20027;-72
2022/12/03 03:45:12;;;;;;;11.88;5.20;;;;;;;;;;7391592;19;20495;-71
2022/12/03 03:47:39;;;;;;;16.33;6.20;;;;;;;;;;7390834;19;20006;-71
2022/12/03 03:50:07;;;;;;;16.25;6.57;;;;;;;;;;7391135;19;20005;-71
2022/12/03 03:52:33;;;;;;;13.77;5.82;;;;;;;;;;7390279;19;20011;-71
2022/12/03 03:54:58;;;;;;;13.63;5.88;;;;;;;;;;7389561;19;19994;-70
2022/12/03 03:57:23;;;;;;;11.80;5.22;;;;;;;;;;7391416;19;20006;-71
2022/12/03 03:59:49;;;;;;;10.90;5.40;;;;;;;;;;7390914;19;20007;-71
2022/12/03 04:02:19;;;;;;;12.73;5.82;;;;;;;;;;7391463;19;20364;-71
2022/12/03 04:04:44;;;;;;;11.98;5.80;;;;;;;;;;7391419;19;20002;-71
2022/12/03 04:07:09;;;;;;;12.85;5.03;;;;;;;;;;7391039;19;20500;-72
2022/12/03 04:09:35;;;;;;;10.93;5.18;;;;;;;;;;7391487;19;20436;-71
2022/12/03 04:14:44;;;;;;;15.40;5.43;;;;;;;;;;7390979;19;20009;-71
2022/12/03 04:17:09;;;;;;;18.50;5.57;;;;;;;;;;7391253;19;20333;-71
2022/12/03 04:19:34;;;;;;;14.02;5.60;;;;;;;;;;7390629;19;20456;-71
2022/12/03 04:24:44;;;;;;;10.60;4.70;;;;;;;;;;7390949;19;20012;-71
2022/12/03 04:29:53;;;;;;;13.75;4.90;;;;;;;;;;7392474;19;20019;-71
2022/12/03 04:37:46;;;;;;;12.63;4.72;;;;;;;;;;7391225;19;20038;-71
2022/12/03 04:42:56;;;;;;;11.05;5.63;;;;;;;;;;7389696;19;20017;-71
2022/12/03 04:45:21;;;;;;;13.57;5.57;;;;;;;;;;7389613;19;19998;-72
2022/12/03 04:47:46;;;;;;;13.02;5.63;;;;;;;;;;7388709;19;20085;-72
2022/12/03 04:50:11;;;;;;;13.95;5.82;;;;;;;;;;7393591;19;20324;-72
2022/12/03 04:52:37;;;;;;;15.48;4.80;;;;;;;;;;7387270;19;20107;-72
2022/12/03 04:55:02;;;;;;;13.70;5.10;;;;;;;;;;7389441;19;19995;-71
2022/12/03 04:57:28;;;;;;;15.02;6.13;;;;;;;;;;7387467;19;20002;-72
2022/12/03 04:59:53;;;;;;;13.77;6.10;;;;;;;;;;7388215;19;20468;-72
2022/12/03 05:02:18;;;;;;;14.15;6.03;;;;;;;;;;7390276;19;20147;-72
2022/12/03 05:04:44;;;;;;;11.02;4.70;;;;;;;;;;7396361;19;20059;-71
2022/12/03 05:07:09;;;;;;;12.73;5.00;;;;;;;;;;7395941;19;20021;-72
2022/12/03 05:09:34;;;;;;;12.02;5.60;;;;;;;;;;7396403;19;19999;-71
2022/12/03 05:12:00;;;;;;;13.27;5.05;;;;;;;;;;7396466;19;20013;-71
2022/12/03 05:14:25;;;;;;;10.95;5.07;;;;;;;;;;7394684;19;20377;-72
2022/12/03 05:16:50;;;;;;;15.15;6.47;;;;;;;;;;7396040;19;20015;-71
2022/12/03 05:19:16;;;;;;;7.85;3.60;;;;;;;;;;7395087;19;20003;-71
2022/12/03 05:21:42;;;;;;;9.48;3.70;;;;;;;;;;7396071;19;20087;-72
2022/12/03 05:24:07;;;;;;;12.80;4.65;;;;;;;;;;7393948;19;19998;-72
2022/12/03 05:26:32;;;;;;;11.48;5.28;;;;;;;;;;7394285;19;20021;-71
2022/12/03 05:28:58;;;;;;;15.63;5.43;;;;;;;;;;7393372;19;20473;-72
2022/12/03 05:31:23;;;;;;;11.02;5.82;;;;;;;;;;7395035;19;20002;-72
2022/12/03 05:33:48;;;;;;;10.23;4.80;;;;;;;;;;7395109;19;20369;-72
2022/12/03 05:36:14;;;;;;;12.55;5.60;;;;;;;;;;7395779;19;20409;-72
2022/12/03 05:38:39;;;;;;;11.30;5.32;;;;;;;;;;7393444;19;19991;-72
2022/12/03 05:42:52;;;;;;;11.35;4.93;;;;;;;;;;7396131;19;20344;-72
2022/12/03 05:43:50;;;;;;;9.60;4.45;;;;;;;;;;7395112;19;19994;-71
2022/12/03 05:46:15;;;;;;;12.10;5.10;;;;;;;;;;7394118;19;19999;-71
2022/12/03 05:48:40;;;;;;;9.07;4.13;;;;;;;;;;7392261;19;20016;-71
2022/12/03 05:51:06;;;;;;;11.20;6.03;;;;;;;;;;7395165;19;20385;-71
2022/12/03 05:53:31;;;;;;;12.10;5.25;;;;;;;;;;7395466;19;20054;-71
2022/12/03 05:55:56;;;;;;;9.65;4.88;;;;;;;;;;7395187;19;19995;-72
2022/12/03 05:58:22;;;;;;;12.23;5.95;;;;;;;;;;7396861;19;19990;-72
2022/12/03 06:00:47;;;;;;;11.68;5.30;;;;;;;;;;7393144;19;19995;-72
2022/12/03 06:03:12;;;;;;;16.30;6.38;;;;;;;;;;7394470;19;20348;-72
2022/12/03 06:05:37;;;;;;;11.98;5.55;;;;;;;;;;7395032;19;20475;-72
2022/12/03 06:08:03;;;;;;;9.90;3.55;;;;;;;;;;7394331;19;20106;-72
2022/12/03 06:10:28;;;;;;;13.90;5.70;;;;;;;;;;7394892;19;19999;-72
2022/12/03 06:12:54;;;;;;;12.63;5.13;;;;;;;;;;7394218;19;20014;-72
2022/12/03 06:15:20;;;;;;;13.57;5.93;;;;;;;;;;7394794;19;20015;-72
2022/12/03 06:17:46;;;;;;;10.60;5.20;;;;;;;;;;7391523;19;20005;-72
2022/12/03 06:20:13;;;;;;;15.27;6.00;;;;;;;;;;7391985;19;19995;-72
2022/12/03 06:22:39;;;;;;;11.25;5.13;;;;;;;;;;7393892;19;20271;-72
2022/12/03 06:25:04;;;;;;;15.48;5.72;;;;;;;;;;7398091;19;20002;-72
2022/12/03 06:27:29;;;;;;;9.90;4.50;;;;;;;;;;7398280;19;20002;-72
2022/12/03 06:29:55;;;;;;;14.82;5.53;;;;;;;;;;7398281;19;20006;-72
2022/12/03 06:32:20;;;;;;;11.32;5.40;;;;;;;;;;7395422;19;20001;-72
2022/12/03 06:34:45;;;;;;;16.50;5.55;;;;;;;;;;7320630;19;20023;-72
2022/12/03 06:37:11;;;;;;;11.90;5.32;;;;;;;;;;7390109;19;20014;-72
2022/12/03 06:39:36;;;;;;;13.77;5.85;;;;;;;;;;7388530;19;20003;-71
2022/12/03 06:42:01;;;;;;;10.00;5.53;;;;;;;;;;7391255;19;20033;-71
2022/12/03 06:44:27;;;;;;;14.15;5.72;;;;;;;;;;7388026;19;20011;-72
2022/12/03 06:46:52;;;;;;;11.15;5.85;;;;;;;;;;7392085;19;20436;-72
2022/12/03 06:49:17;;;;;;;12.23;4.97;;;;;;;;;;7391843;19;20463;-71
2022/12/03 06:51:43;;;;;;;12.32;5.82;;;;;;;;;;7393054;19;19999;-71
2022/12/03 06:54:08;;;;;;;13.15;5.78;;;;;;;;;;7336517;19;20086;-72
2022/12/03 06:56:36;;;;;;;14.45;5.72;;;;;;;;;;7389761;19;19999;-72
2022/12/03 06:59:02;;;;;;;12.80;5.28;;;;;;;;;;7390289;19;20024;-71
2022/12/03 07:01:28;;;;;;;10.77;5.57;;;;;;;;;;7387711;19;20007;-71
2022/12/03 07:03:53;;;;;;;12.68;5.72;;;;;;;;;;7392603;19;19990;-71
2022/12/03 07:06:18;;;;;;;13.35;5.55;;;;;;;;;;7390862;19;20510;-71
2022/12/03 07:08:44;;;;;;;13.60;5.80;;;;;;;;;;7389353;19;20106;-71
2022/12/03 07:11:31;;;;;;;11.40;5.63;;;;;;;;;;7391687;19;20027;-71
2022/12/03 07:14:00;;;;;;;16.67;5.45;;;;;;;;;;7391134;19;20019;-72
2022/12/03 07:16:29;;;;;;;15.80;5.72;;;;;;;;;;7389754;19;19998;-71
2022/12/03 07:18:54;;;;;;;16.27;5.32;;;;;;;;;;7389219;19;19998;-71
2022/12/03 07:21:20;;;;;;;11.63;4.68;;;;;;;;;;7388846;19;20033;-71
2022/12/03 07:23:45;;;;;;;13.07;5.00;;;;;;;;;;7391515;19;20013;-71
2022/12/03 07:26:11;;;;;;;14.00;7.10;;;;;;;;;;7390279;19;20009;-70
2022/12/03 07:28:36;;;;;;;13.15;5.13;;;;;;;;;;7388897;19;20007;-72
2022/12/03 07:31:01;;;;;;;15.32;5.00;;;;;;;;;;7390448;19;20418;-70
2022/12/03 07:33:27;;;;;;;10.57;4.57;;;;;;;;;;7387611;19;20512;-70
2022/12/03 07:35:52;;;;;;;13.35;4.90;;;;;;;;;;7390031;19;20005;-70
2022/12/03 07:38:17;;;;;;;12.45;5.75;;;;;;;;;;7387942;19;20035;-71
2022/12/03 07:40:43;;;;;;;12.32;5.18;;;;;;;;;;7386144;19;20479;-72
2022/12/03 07:43:08;;;;;;;9.60;4.68;;;;;;;;;;7388380;19;20498;-71
2022/12/03 07:45:33;;;;;;;10.93;5.03;;;;;;;;;;7389982;19;20444;-72
2022/12/03 07:47:59;;;;;;;14.60;6.05;;;;;;;;;;7389373;19;20480;-72
2022/12/03 07:50:27;;;;;;;10.73;5.13;;;;;;;;;;7388138;19;20003;-71
2022/12/03 07:52:53;;;;;;;11.85;5.03;;;;;;;;;;7390157;19;20413;-70
2022/12/03 07:55:18;;;;;;;11.48;5.70;;;;;;;;;;7388908;19;20321;-70
2022/12/03 07:57:43;;;;;;;11.63;5.22;;;;;;;;;;7389451;19;20065;-70
2022/12/03 08:00:10;;;;;;;13.68;6.15;;;;;;;;;;7387987;19;20455;-70
2022/12/03 08:02:35;;;;;;;12.77;5.68;;;;;;;;;;7389193;19;20019;-69
2022/12/03 08:05:00;;;;;;;14.85;6.43;;;;;;;;;;7389821;19;20115;-70
2022/12/03 08:07:26;;;;;;;11.90;5.18;;;;;;;;;;7388694;19;20385;-70
2022/12/03 08:09:51;;;;;;;13.50;5.78;;;;;;;;;;7390532;19;19995;-70
2022/12/03 08:12:39;;;;;;;15.95;6.55;;;;;;;;;;7389757;19;20322;-70
2022/12/03 08:15:12;;;;;;;15.38;6.07;;;;;;;;;;7390139;19;20023;-70
2022/12/03 08:17:39;;;;;;;11.43;5.45;;;;;;;;;;7388089;19;20014;-70
2022/12/03 08:20:16;;;;;;;13.00;5.88;;;;;;;;;;7385650;19;20463;-74
2022/12/03 08:22:43;;;;;;;15.75;6.90;;;;;;;;;;7381118;19;20504;-71
2022/12/03 08:25:30;;;;;;;12.13;5.78;;;;;;;;;;7386669;19;20325;-71
2022/12/03 08:28:01;;;;;;;15.93;6.70;;;;;;;;;;7384145;19;20021;-70
2022/12/03 08:30:28;;;;;;;8.60;4.50;;;;;;;;;;7383501;19;20061;-70
2022/12/03 08:32:53;;;;;;;16.35;7.18;;;;;;;;;;7383889;19;20012;-70
2022/12/03 08:35:26;;;;;;;12.95;5.75;;;;;;;;;;7383955;19;20428;-70
2022/12/03 08:38:00;;;;;;;16.02;6.07;;;;;;;;;;7386843;19;20006;-70
2022/12/03 08:40:39;;;;;;;12.63;5.30;;;;;;;;;;7387888;19;20010;-70
2022/12/03 08:43:24;;;;;;;12.85;6.28;;;;;;;;;;7392065;19;20031;-71
2022/12/03 08:45:51;;;;;;;16.75;6.82;;;;;;;;;;7391254;19;20475;-69
2022/12/03 08:48:33;;;;;;;15.10;6.93;;;;;;;;;;7389421;19;20011;-69
2022/12/03 08:51:18;;;;;;;;;;;;;;;;;;7392644;19;20488;-69
2022/12/03 08:53:47;;;;;;;19.17;7.78;;;;;;;;;;7386071;19;19922;-69
2022/12/03 08:56:24;;;;;;;14.18;5.95;;;;;;;;;;7390870;19;20318;-69
2022/12/03 08:59:01;;;;;;;15.73;6.97;;;;;;;;;;7389946;19;20010;-66
2022/12/03 09:01:31;;;;;;;15.23;6.53;;;;;;;;;;7388479;19;20471;-66
2022/12/03 09:04:19;;;;;;;10.80;4.97;;;;;;;;;;7390842;19;20006;-66
2022/12/03 09:06:44;;;;;;;15.95;6.75;;;;;;;;;;7388739;19;20028;-66
2022/12/03 09:09:10;;;;;;;17.13;7.10;;;;;;;;;;7391246;19;20401;-65
2022/12/03 09:11:35;;;;;;;23.20;7.47;;;;;;;;;;7390264;19;20003;-67
2022/12/03 09:14:01;;;;;;;18.60;7.20;;;;;;;;;;7390847;19;20019;-66
2022/12/03 09:16:26;;;;;;;15.50;6.07;;;;;;;;;;7390993;19;20006;-67
2022/12/03 09:18:52;;;;;;;18.52;8.10;;;;;;;;;;7386468;19;20010;-69
2022/12/03 09:21:17;;;;;;;16.45;7.18;;;;;;;;;;7384866;19;20007;-68
2022/12/03 09:23:42;;;;;;;18.08;7.75;;;;;;;;;;7385632;19;20023;-68
2022/12/03 09:26:07;;;;;;;23.73;9.07;;;;;;;;;;7383718;19;20465;-68
2022/12/03 09:28:33;;;;;;;18.13;8.07;;;;;;;;;;7387415;19;20468;-68
2022/12/03 09:30:58;;;;;;;13.63;5.78;;;;;;;;;;7389767;19;20022;-68
2022/12/03 09:33:23;;;;;;;13.95;7.32;;;;;;;;;;7383519;19;20007;-68
2022/12/03 09:35:49;;;;;;;19.65;8.68;;;;;;;;;;7389211;19;20049;-68
2022/12/03 09:38:14;;;;;;;14.98;7.10;;;;;;;;;;7383457;19;20007;-68
2022/12/03 09:40:40;;;;;;;16.77;7.28;;;;;;;;;;7386867;19;20383;-69
2022/12/03 09:43:05;;;;;;;16.75;7.03;;;;;;;;;;7387773;19;20010;-69
2022/12/03 09:45:31;;;;;;;18.73;8.07;;;;;;;;;;7389211;19;20093;-70
2022/12/03 09:47:56;;;;;;;14.63;6.88;;;;;;;;;;7384107;19;20030;-69
2022/12/03 09:50:24;;;;;;;19.02;7.53;;;;;;;;;;7388634;19;21146;-69
2022/12/03 09:52:53;;;;;;;21.88;8.38;;;;;;;;;;7387158;19;20048;-69
2022/12/03 09:55:24;;;;;;;19.23;7.55;;;;;;;;;;7385464;19;20034;-69
2022/12/03 09:57:51;;;;;;;;;;;;;;;;;;7384843;19;20085;-69
2022/12/03 10:00:19;;;;;;;13.80;5.88;;;;;;;;;;7386283;19;20302;-69
2022/12/03 10:02:46;;;;;;;16.17;7.18;;;;;;;;;;7390031;19;20013;-70
2022/12/03 10:05:13;;;;;;;14.25;6.15;;;;;;;;;;7388039;19;20009;-70
2022/12/03 10:07:39;;;;;;;17.20;7.05;;;;;;;;;;7388276;19;20072;-69
2022/12/03 10:10:07;;;;;;;17.25;6.97;;;;;;;;;;7388020;19;20030;-68
2022/12/03 10:12:33;;;;;;;14.80;6.40;;;;;;;;;;7389931;19;20360;-70
2022/12/03 10:14:59;;;;;;;14.35;6.57;;;;;;;;;;7388002;19;20002;-69
2022/12/03 10:17:31;;;;;;;20.45;8.38;;;;;;;;;;7385015;19;20026;-69
2022/12/03 10:19:57;;;;;;;19.60;8.73;;;;;;;;;;7387837;19;20015;-70
2022/12/03 10:22:23;;;;;;;19.73;8.05;;;;;;;;;;7391747;19;19994;-70
2022/12/03 10:25:05;;;;;;;16.88;8.20;;;;;;;;;;7387650;19;20005;-69
2022/12/03 10:27:31;;;;;;;17.92;8.23;;;;;;;;;;7385405;19;20340;-69
2022/12/03 10:30:03;;;;;;;18.77;6.97;;;;;;;;;;7388975;19;19999;-69
2022/12/03 10:32:40;;;;;;;18.38;7.65;;;;;;;;;;7387125;19;20039;-69
2022/12/03 10:35:16;;;;;;;18.38;7.72;;;;;;;;;;7384629;19;20321;-69
2022/12/03 10:38:02;;;;;;;18.52;8.52;;;;;;;;;;7378250;19;20072;-69
2022/12/03 10:40:38;;;;;;;20.10;8.57;;;;;;;;;;7387416;19;19998;-69
2022/12/03 10:43:20;;;;;;;18.88;8.20;;;;;;;;;;7389576;19;20002;-69
2022/12/03 10:46:02;;;;;;;18.60;8.60;;;;;;;;;;7388951;19;20005;-68
2022/12/03 10:48:27;;;;;;;;;;;;;;;;;;7387981;19;20252;-67
2022/12/03 10:51:05;;;;;;;20.40;7.88;;;;;;;;;;7387242;19;19910;-68
2022/12/03 10:53:34;;;;;;;17.58;7.43;;;;;;;;;;7388947;19;20113;-68
2022/12/03 10:56:03;;;;;;;21.50;8.45;;;;;;;;;;7387440;19;20002;-68
2022/12/03 10:58:33;;;;;;;23.20;9.85;;;;;;;;;;7384191;19;20543;-68
2022/12/03 11:01:02;;;;;;;23.42;8.63;;;;;;;;;;7383986;19;20014;-69
2022/12/03 11:03:29;;;;;;;20.50;9.63;;;;;;;;;;7388436;19;20374;-69
2022/12/03 11:05:56;;;;;;;21.02;7.63;;;;;;;;;;7388516;19;20030;-69
2022/12/03 11:08:34;;;;;;;22.17;9.02;;;;;;;;;;7385012;19;20053;-73
2022/12/03 11:11:21;;;;;;;21.58;8.73;;;;;;;;;;7388547;19;19999;-73
2022/12/03 11:13:51;;;;;;;22.98;8.80;;;;;;;;;;7387409;19;20017;-73
2022/12/03 11:16:45;;;;;;;14.60;7.55;;;;;;;;;;7388053;19;20009;-73
2022/12/03 11:19:11;;;;;;;18.60;8.27;;;;;;;;;;7382415;19;20111;-73
2022/12/03 11:22:05;;;;;;;22.23;8.73;;;;;;;;;;7386746;19;19998;-73
2022/12/03 11:24:35;;;;;;;17.63;8.15;;;;;;;;;;7385904;19;19998;-72
2022/12/03 11:27:00;;;;;;;20.67;8.80;;;;;;;;;;7386101;19;20414;-73
2022/12/03 11:29:59;;;;;;;18.15;8.25;;;;;;;;;;7386270;19;19995;-72
2022/12/03 11:32:37;;;;;;;15.82;7.47;;;;;;;;;;7384201;19;20070;-73
2022/12/03 11:35:11;;;;;;;22.52;9.02;;;;;;;;;;7388764;19;20006;-73
2022/12/03 11:37:37;;;;;;;18.90;8.70;;;;;;;;;;7387515;19;20013;-72
2022/12/03 11:40:22;;;;;;;26.05;10.30;;;;;;;;;;7387128;19;20452;-72
2022/12/03 11:42:48;;;;;;;19.92;9.25;;;;;;;;;;7386400;19;20002;-72
2022/12/03 11:45:47;;;;;;;21.88;9.48;;;;;;;;;;7387652;19;20019;-72
2022/12/03 11:48:14;;;;;;;22.40;8.60;;;;;;;;;;7383902;19;20006;-72
2022/12/03 11:50:48;;;;;;;23.77;10.18;;;;;;;;;;7387104;19;20404;-73
2022/12/03 11:53:19;;;;;;;17.70;9.60;;;;;;;;;;7390170;19;20014;-71
2022/12/03 11:55:47;;;;;;;20.55;9.48;;;;;;;;;;7385135;19;20002;-73
2022/12/03 11:58:26;;;;;;;21.17;9.50;;;;;;;;;;7386129;19;19999;-73
2022/12/03 12:00:54;;;;;;;24.50;10.20;;;;;;;;;;7385647;19;20006;-71
2022/12/03 12:03:42;;;;;;;26.38;10.40;;;;;;;;;;7384752;19;20085;-71
2022/12/03 12:06:14;;;;;;;20.73;9.40;;;;;;;;;;7386903;19;20002;-73
2022/12/03 12:09:02;;;;;;;23.88;9.40;;;;;;;;;;7383725;19;20002;-73
2022/12/03 12:11:33;;;;;;;21.88;9.30;;;;;;;;;;7386142;19;19998;-71
2022/12/03 12:14:06;;;;;;;22.92;9.43;;;;;;;;;;7385712;19;20002;-72
2022/12/03 12:16:50;;;;;;;32.20;11.18;;;;;;;;;;7386012;19;20002;-71
2022/12/03 12:19:38;;;;;;;22.65;9.80;;;;;;;;;;7385290;19;20007;-72
2022/12/03 12:22:29;;;;;;;22.60;9.70;;;;;;;;;;7386200;19;20002;-72
2022/12/03 12:24:56;;;;;;;22.95;9.90;;;;;;;;;;7385642;19;20006;-72
2022/12/03 12:27:33;;;;;;;22.17;9.60;;;;;;;;;;7389209;19;19999;-72
2022/12/03 12:30:06;;;;;;;23.10;8.90;;;;;;;;;;7385839;19;20002;-72
2022/12/03 12:32:40;;;;;;;26.80;10.48;;;;;;;;;;7385617;19;19995;-73
2022/12/03 12:35:18;;;;;;;26.17;9.05;;;;;;;;;;7382376;19;20014;-72
2022/12/03 12:37:47;;;;;;;26.67;9.80;;;;;;;;;;7385547;19;20005;-71
2022/12/03 12:40:15;;;;;;;14.75;6.00;;;;;;;;;;7384612;19;19999;-72
2022/12/03 12:42:50;;;;;;;28.13;10.80;;;;;;;;;;7384975;19;20011;-73
2022/12/03 12:45:18;;;;;;;27.00;10.23;;;;;;;;;;7388456;19;20002;-72
2022/12/03 12:47:58;;;;;;;26.88;10.88;;;;;;;;;;7385129;19;20005;-72
2022/12/03 12:50:24;;;;;;;26.20;10.27;;;;;;;;;;7385432;19;20037;-71
2022/12/03 12:52:56;;;;;;;24.70;11.15;;;;;;;;;;7384803;19;19998;-73
2022/12/03 12:55:22;;;;;;;23.67;9.85;;;;;;;;;;7385772;19;20357;-72
2022/12/03 12:57:48;;;;;;;27.17;10.73;;;;;;;;;;7384913;19;19994;-73
2022/12/03 13:00:20;;;;;;;29.25;10.35;;;;;;;;;;7384938;19;20041;-71
2022/12/03 13:03:05;;;;;;;26.75;10.65;;;;;;;;;;7384995;19;20416;-72
2022/12/03 13:05:38;;;;;;;27.33;11.65;;;;;;;;;;7383494;19;20017;-72
2022/12/03 13:08:34;;;;;;;23.83;9.98;;;;;;;;;;7388936;19;20082;-72
2022/12/03 13:11:01;;;;;;;21.45;10.27;;;;;;;;;;7384358;19;20062;-73
2022/12/03 13:13:36;;;;;;;23.83;10.68;;;;;;;;;;7384339;19;20070;-73
2022/12/03 13:16:09;;;;;;;23.33;8.77;;;;;;;;;;7384569;19;20021;-72
2022/12/03 13:18:41;;;;;;;27.25;12.05;;;;;;;;;;7383078;19;20373;-72
2022/12/03 13:21:17;;;;;;;19.73;9.15;;;;;;;;;;7382911;19;20013;-72
2022/12/03 13:23:42;;;;;;;22.35;8.75;;;;;;;;;;7385826;19;20003;-73
2022/12/03 13:26:22;;;;;;;26.70;9.93;;;;;;;;;;7391999;19;20027;-71
2022/12/03 13:28:48;;;;;;;29.17;10.70;;;;;;;;;;7390217;19;19999;-73
2022/12/03 13:31:24;;;;;;;26.48;11.00;;;;;;;;;;7389680;19;20103;-72
2022/12/03 13:33:50;;;;;;;27.63;10.98;;;;;;;;;;7391856;19;20021;-74
2022/12/03 13:36:18;;;;;;;26.98;10.20;;;;;;;;;;7391352;19;20463;-73
2022/12/03 13:38:44;;;;;;;23.45;11.52;;;;;;;;;;7389358;19;20014;-72
2022/12/03 13:42:37;;;;;;;22.02;9.63;;;;;;;;;;7389048;19;19994;-72
2022/12/03 13:43:59;;;;;;;25.77;10.60;;;;;;;;;;7391605;19;19998;-73
2022/12/03 13:46:32;;;;;;;21.83;8.63;;;;;;;;;;7391327;19;20385;-71
2022/12/03 13:48:58;;;;;;;23.13;11.63;;;;;;;;;;7387756;19;20002;-71
2022/12/03 13:51:29;;;;;;;23.20;10.05;;;;;;;;;;7391200;19;20019;-72
2022/12/03 13:53:54;;;;;;;24.20;9.98;;;;;;;;;;7390767;19;20005;-72
2022/12/03 13:56:35;;;;;;;26.55;11.80;;;;;;;;;;7386920;19;20038;-72
2022/12/03 13:59:00;;;;;;;19.25;7.85;;;;;;;;;;7388287;19;20479;-72
2022/12/03 14:01:27;;;;;;;22.55;9.07;;;;;;;;;;7390310;19;20096;-71
2022/12/03 14:03:52;;;;;;;20.13;9.30;;;;;;;;;;7389691;19;20104;-71
2022/12/03 14:06:17;;;;;;;23.23;9.98;;;;;;;;;;7391452;19;20430;-73
2022/12/03 14:08:43;;;;;;;28.70;10.63;;;;;;;;;;7386761;19;20007;-72
2022/12/03 14:12:24;;;;;;;27.42;10.13;;;;;;;;;;7395053;19;20028;-72
2022/12/03 14:13:54;;;;;;;21.13;10.15;;;;;;;;;;7389736;19;20002;-73
2022/12/03 14:16:19;;;;;;;25.75;10.48;;;;;;;;;;7389934;19;20079;-73
2022/12/03 14:18:44;;;;;;;24.23;8.85;;;;;;;;;;7387236;19;19995;-72
2022/12/03 14:21:10;;;;;;;24.63;9.95;;;;;;;;;;7384153;19;20404;-73
2022/12/03 14:23:35;;;;;;;26.02;11.20;;;;;;;;;;7389405;19;20005;-73
2022/12/03 14:26:00;;;;;;;26.83;10.48;;;;;;;;;;7392637;19;19999;-72
2022/12/03 14:28:25;;;;;;;20.88;8.35;;;;;;;;;;7388675;19;20417;-73
2022/12/03 14:30:51;;;;;;;23.13;10.63;;;;;;;;;;7389749;19;20003;-72
2022/12/03 14:33:16;;;;;;;24.83;9.68;;;;;;;;;;7389509;19;20010;-73
2022/12/03 14:35:41;;;;;;;22.27;9.18;;;;;;;;;;7389540;19;19990;-73
2022/12/03 14:38:07;;;;;;;25.33;11.43;;;;;;;;;;7389178;19;20324;-71
2022/12/03 14:40:32;;;;;;;33.13;13.13;;;;;;;;;;7383274;19;20019;-72
2022/12/03 14:42:57;;;;;;;29.30;10.48;;;;;;;;;;7393412;19;20007;-72
2022/12/03 14:45:23;;;;;;;24.30;9.75;;;;;;;;;;7387866;19;19999;-72
2022/12/03 14:47:49;;;;;;;24.38;9.90;;;;;;;;;;7391775;19;20028;-70
2022/12/03 14:50:14;;;;;;;26.58;11.07;;;;;;;;;;7386875;19;20004;-73
2022/12/03 14:52:40;;;;;;;27.67;11.05;;;;;;;;;;7386483;19;19999;-73
2022/12/03 14:55:05;;;;;;;19.35;9.68;;;;;;;;;;7389057;19;20071;-72
2022/12/03 14:57:31;;;;;;;27.45;9.68;;;;;;;;;;7388987;19;20357;-74
2022/12/03 14:59:56;;;;;;;24.85;10.55;;;;;;;;;;7388088;19;20489;-73